Time;durP1;ratioP1;P1;durP2;ratioP2;P2;SDS_P1;SDS_P2;PMS_P1;PMS_P2;Temp;Humidity;BMP_temperature;BMP_pressure;BME280_temperature;BME280_humidity;BME280_pressure;Samples;Min_cycle;Max_cycle;Signal;HPM_P1;HPM_P2
2021/12/20 00:00:52;;;;;;;29.20;4.55;;;6.30;99.90;;;;;;5010668;28;20539;-76
2021/12/20 00:03:17;;;;;;;27.40;4.47;;;6.30;99.90;;;;;;5008520;28;20142;-74
2021/12/20 00:05:43;;;;;;;27.42;5.45;;;6.30;99.90;;;;;;5002199;28;20512;-75
2021/12/20 00:08:09;;;;;;;23.65;4.28;;;6.30;99.90;;;;;;5016182;28;20128;-76
2021/12/20 00:10:35;;;;;;;29.13;5.10;;;6.30;99.90;;;;;;5008896;28;20045;-76
2021/12/20 00:13:02;;;;;;;29.77;4.78;;;6.30;99.90;;;;;;5006832;28;20045;-76
2021/12/20 00:15:27;;;;;;;24.20;4.38;;;6.30;99.90;;;;;;5004783;28;20045;-75
2021/12/20 00:17:59;;;;;;;24.05;4.25;;;6.20;99.90;;;;;;5012030;28;20041;-76
2021/12/20 00:20:55;;;;;;;32.03;4.90;;;6.20;99.90;;;;;;4990411;28;20760;-76
2021/12/20 00:23:21;;;;;;;28.95;5.30;;;6.20;99.90;;;;;;5005968;28;20484;-75
2021/12/20 00:25:48;;;;;;;34.42;5.32;;;6.20;99.90;;;;;;5050950;22;20115;-78
2021/12/20 00:28:19;;;;;;;26.52;4.20;;;6.20;99.90;;;;;;5007646;28;20277;-79
2021/12/20 00:30:46;;;;;;;35.17;5.47;;;6.20;99.90;;;;;;5010535;28;20033;-77
2021/12/20 00:33:11;;;;;;;28.63;4.47;;;6.10;99.90;;;;;;5013409;28;20033;-77
2021/12/20 00:35:38;;;;;;;33.70;4.35;;;6.10;99.90;;;;;;4996576;28;20040;-77
2021/12/20 00:40:48;;;;;;;27.67;4.05;;;6.20;99.90;;;;;;5010885;28;20053;-77
2021/12/20 00:43:15;;;;;;;36.40;5.45;;;6.10;99.90;;;;;;5012507;28;20038;-77
2021/12/20 00:45:41;;;;;;;32.33;5.32;;;6.10;99.90;;;;;;4978272;28;20061;-77
2021/12/20 00:48:07;;;;;;;36.17;5.47;;;6.10;99.90;;;;;;5010318;28;20099;-78
2021/12/20 00:50:33;;;;;;;27.33;4.07;;;6.20;99.90;;;;;;5010062;28;20029;-77
2021/12/20 00:52:59;;;;;;;35.15;4.80;;;6.10;99.90;;;;;;4974297;28;20041;-77
2021/12/20 00:55:27;;;;;;;34.60;5.18;;;6.20;99.90;;;;;;5008617;28;20598;-77
2021/12/20 00:57:56;;;;;;;31.80;5.63;;;6.20;99.90;;;;;;5006252;28;20101;-77
2021/12/20 01:00:29;;;;;;;34.80;4.78;;;6.20;99.90;;;;;;5024717;28;20049;-77
2021/12/20 01:02:56;;;;;;;34.50;5.43;;;6.20;99.90;;;;;;4992819;28;20069;-77
2021/12/20 01:05:23;;;;;;;35.90;5.43;;;6.20;99.90;;;;;;5009265;28;20045;-78
2021/12/20 01:07:49;;;;;;;27.13;5.35;;;6.20;99.90;;;;;;5007156;28;20033;-77
2021/12/20 01:10:16;;;;;;;31.63;5.15;;;6.10;99.90;;;;;;4995558;28;20107;-77
2021/12/20 01:12:45;;;;;;;29.08;5.30;;;6.20;99.90;;;;;;5011013;28;20414;-77
2021/12/20 01:15:15;;;;;;;35.38;5.07;;;6.20;99.90;;;;;;5009664;28;20080;-78
2021/12/20 01:17:41;;;;;;;31.10;4.82;;;6.20;99.90;;;;;;4989269;28;20033;-77
2021/12/20 01:20:08;;;;;;;36.28;5.53;;;6.20;99.90;;;;;;5010776;28;20123;-77
2021/12/20 01:22:34;;;;;;;36.30;5.45;;;6.20;99.90;;;;;;5008689;28;20155;-77
2021/12/20 01:25:00;;;;;;;35.92;5.75;;;6.20;99.90;;;;;;4993511;28;21906;-77
2021/12/20 01:27:26;;;;;;;35.97;5.65;;;6.20;99.90;;;;;;5007200;28;20041;-77
2021/12/20 01:29:51;;;;;;;36.05;4.88;;;6.20;99.90;;;;;;5010516;28;20652;-77
2021/12/20 01:32:17;;;;;;;30.25;4.95;;;6.20;99.90;;;;;;5011191;28;20423;-78
2021/12/20 01:34:43;;;;;;;29.63;4.60;;;6.20;99.90;;;;;;5007316;28;20042;-78
2021/12/20 01:37:08;;;;;;;32.35;5.43;;;6.20;99.90;;;;;;5003646;28;20536;-77
2021/12/20 01:39:34;;;;;;;31.60;5.00;;;6.20;99.90;;;;;;5011589;28;20471;-77
2021/12/20 01:42:03;;;;;;;38.78;5.38;;;6.20;99.90;;;;;;5010333;28;20458;-77
2021/12/20 01:44:30;;;;;;;30.88;5.32;;;6.20;99.90;;;;;;5009435;28;20043;-78
2021/12/20 01:46:56;;;;;;;25.50;5.20;;;6.20;99.90;;;;;;5006830;28;20041;-78
2021/12/20 01:49:22;;;;;;;29.55;4.63;;;6.20;99.90;;;;;;4994871;28;20403;-77
2021/12/20 01:54:25;;;;;;;27.92;4.30;;;6.20;99.90;;;;;;5027053;28;20045;-77
2021/12/20 01:56:51;;;;;;;38.03;5.43;;;6.20;99.90;;;;;;4992741;28;20460;-77
2021/12/20 01:59:17;;;;;;;31.20;4.32;;;6.20;99.90;;;;;;4999560;28;20438;-77
2021/12/20 02:01:45;;;;;;;31.75;4.55;;;6.20;99.90;;;;;;5011179;28;20487;-78
2021/12/20 02:04:12;;;;;;;28.00;4.72;;;6.20;99.90;;;;;;4998933;28;20041;-78
2021/12/20 02:06:39;;;;;;;33.42;5.38;;;6.20;99.90;;;;;;5010335;28;20038;-78
2021/12/20 02:09:10;;;;;;;32.00;5.85;;;6.20;99.90;;;;;;5009405;28;20035;-77
2021/12/20 02:11:38;;;;;;;32.67;4.70;;;6.20;99.90;;;;;;5010775;28;20040;-77
2021/12/20 02:14:06;;;;;;;33.42;4.93;;;6.20;99.90;;;;;;4989529;28;20042;-79
2021/12/20 02:16:33;;;;;;;30.58;4.63;;;6.20;99.90;;;;;;5009261;28;20044;-77
2021/12/20 02:19:11;;;;;;;29.88;5.00;;;6.20;99.90;;;;;;5010387;28;20078;-77
2021/12/20 02:21:37;;;;;;;32.72;4.35;;;6.20;99.90;;;;;;5010426;28;20037;-79
2021/12/20 02:24:04;;;;;;;38.55;5.68;;;6.20;99.90;;;;;;4993856;28;20040;-77
2021/12/20 02:26:30;;;;;;;28.92;5.38;;;6.10;99.90;;;;;;5010863;28;21706;-78
2021/12/20 02:29:01;;;;;;;27.83;4.43;;;6.20;99.90;;;;;;5010291;28;20026;-78
2021/12/20 02:39:40;;;;;;;23.05;4.03;;;6.20;99.90;;;;;;5014244;28;20045;-78
2021/12/20 02:42:06;;;;;;;25.25;4.15;;;6.20;99.90;;;;;;5011156;28;20117;-78
2021/12/20 02:44:32;;;;;;;29.27;4.00;;;6.20;99.90;;;;;;4996552;28;20056;-77
2021/12/20 02:49:28;;;;;;;30.23;4.18;;;6.20;99.90;;;;;;5011549;28;20066;-77
2021/12/20 02:52:00;;;;;;;21.17;3.33;;;6.20;99.90;;;;;;5010683;28;20107;-78
2021/12/20 02:54:26;;;;;;;30.42;4.07;;;6.20;99.90;;;;;;5012941;28;20034;-78
2021/12/20 02:56:52;;;;;;;29.90;4.65;;;6.20;99.90;;;;;;4998274;28;20124;-77
2021/12/20 02:59:18;;;;;;;25.75;3.63;;;6.20;99.90;;;;;;5013368;28;20049;-78
2021/12/20 03:01:47;;;;;;;27.20;4.05;;;6.20;99.90;;;;;;5011545;28;20096;-76
2021/12/20 03:04:13;;;;;;;23.92;3.53;;;6.20;99.90;;;;;;5011518;28;20033;-77
2021/12/20 03:06:45;;;;;;;23.92;3.50;;;6.20;99.90;;;;;;5029822;28;20072;-77
2021/12/20 03:09:15;;;;;;;21.52;3.97;;;6.20;99.90;;;;;;5012768;28;20120;-78
2021/12/20 03:11:42;;;;;;;24.63;3.78;;;6.20;99.90;;;;;;5011449;28;20029;-77
2021/12/20 03:14:15;;;;;;;23.40;3.95;;;6.10;99.90;;;;;;4994947;28;20053;-77
2021/12/20 03:16:41;;;;;;;23.80;3.88;;;6.10;99.90;;;;;;5010850;28;20041;-77
2021/12/20 03:19:07;;;;;;;25.83;3.45;;;6.10;99.90;;;;;;5013238;28;20091;-78
2021/12/20 03:21:33;;;;;;;20.83;3.35;;;6.10;99.90;;;;;;5014052;28;20081;-78
2021/12/20 03:23:59;;;;;;;25.15;4.13;;;6.10;99.90;;;;;;5013990;28;20496;-78
2021/12/20 03:26:25;;;;;;;21.50;3.20;;;6.00;99.90;;;;;;4995253;28;20120;-78
2021/12/20 03:28:51;;;;;;;20.73;3.28;;;6.00;99.90;;;;;;5013722;28;20124;-77
2021/12/20 03:31:17;;;;;;;17.83;3.22;;;6.00;99.90;;;;;;5008228;28;20382;-78
2021/12/20 03:33:43;;;;;;;20.75;3.53;;;6.00;99.90;;;;;;5012596;28;20046;-77
2021/12/20 03:36:09;;;;;;;27.48;3.03;;;6.00;99.90;;;;;;4994966;28;20407;-78
2021/12/20 03:38:35;;;;;;;20.90;3.17;;;6.00;99.90;;;;;;4994045;28;20033;-78
2021/12/20 03:41:00;;;;;;;18.55;3.20;;;5.90;99.90;;;;;;5013518;28;20404;-77
2021/12/20 03:43:31;;;;;;;19.60;2.83;;;5.90;99.90;;;;;;5011129;28;20041;-77
2021/12/20 03:46:01;;;;;;;23.27;3.30;;;5.90;99.90;;;;;;5012093;28;20144;-78
2021/12/20 03:48:27;;;;;;;21.17;2.85;;;5.90;99.90;;;;;;4994526;28;20415;-78
2021/12/20 03:50:54;;;;;;;19.95;3.20;;;5.80;99.90;;;;;;5013450;28;20040;-77
2021/12/20 03:53:20;;;;;;;26.98;2.90;;;5.80;99.90;;;;;;5012336;28;20100;-77
2021/12/20 03:55:47;;;;;;;19.13;3.25;;;5.70;99.90;;;;;;5012799;28;20124;-77
2021/12/20 03:58:12;;;;;;;17.63;3.28;;;5.70;99.90;;;;;;4995556;28;20038;-78
2021/12/20 04:00:38;;;;;;;19.23;2.47;;;5.60;99.90;;;;;;4996698;28;20427;-78
2021/12/20 04:03:09;;;;;;;19.48;2.70;;;5.60;99.90;;;;;;5011982;28;20037;-78
2021/12/20 04:05:35;;;;;;;20.92;3.25;;;5.50;99.90;;;;;;5001221;28;20049;-78
2021/12/20 04:08:01;;;;;;;18.73;2.90;;;5.50;99.90;;;;;;4998903;28;20395;-77
2021/12/20 04:10:27;;;;;;;16.20;2.90;;;5.50;99.90;;;;;;5012093;28;20117;-77
2021/12/20 04:12:53;;;;;;;19.60;2.40;;;5.50;99.90;;;;;;5012218;28;20040;-78
2021/12/20 04:15:18;;;;;;;14.35;2.63;;;5.40;99.90;;;;;;5008775;28;20038;-78
2021/12/20 04:17:44;;;;;;;21.58;3.72;;;5.40;99.90;;;;;;5010613;28;20510;-78
2021/12/20 04:20:10;;;;;;;20.55;2.95;;;5.30;99.90;;;;;;5011874;28;20506;-78
2021/12/20 04:22:36;;;;;;;16.35;2.60;;;5.30;99.90;;;;;;5013077;28;20080;-77
2021/12/20 04:25:03;;;;;;;15.70;2.75;;;5.30;99.90;;;;;;5011499;28;20496;-78
2021/12/20 04:27:29;;;;;;;21.73;2.85;;;5.20;99.90;;;;;;5009564;28;20033;-78
2021/12/20 04:29:55;;;;;;;14.60;2.67;;;5.20;99.90;;;;;;4993554;28;20043;-77
2021/12/20 04:32:21;;;;;;;19.52;2.58;;;5.10;99.90;;;;;;5011907;28;20315;-78
2021/12/20 04:34:47;;;;;;;15.02;2.67;;;5.10;99.90;;;;;;5008427;28;20119;-78
2021/12/20 04:37:13;;;;;;;20.88;2.58;;;5.00;99.90;;;;;;5008143;28;20045;-77
2021/12/20 04:39:39;;;;;;;18.13;2.88;;;5.00;99.90;;;;;;5011812;28;20060;-77
2021/12/20 04:42:05;;;;;;;19.83;2.97;;;5.00;99.90;;;;;;5007227;28;20483;-77
2021/12/20 04:44:31;;;;;;;19.05;3.50;;;5.00;99.90;;;;;;5012173;28;20430;-78
2021/12/20 04:46:57;;;;;;;20.55;3.15;;;4.90;99.90;;;;;;4995283;28;20047;-78
2021/12/20 04:49:24;;;;;;;14.07;2.58;;;4.90;99.90;;;;;;4994721;28;20049;-77
2021/12/20 04:51:52;;;;;;;21.92;3.15;;;4.90;99.90;;;;;;5008956;28;20446;-76
2021/12/20 04:54:18;;;;;;;15.38;2.30;;;4.80;99.90;;;;;;4992362;28;20052;-77
2021/12/20 04:56:44;;;;;;;12.27;2.63;;;4.80;99.90;;;;;;4992916;28;20037;-78
2021/12/20 04:59:10;;;;;;;17.55;3.25;;;4.70;99.90;;;;;;5009075;28;20083;-78
2021/12/20 05:01:35;;;;;;;17.38;2.72;;;4.70;99.90;;;;;;4989588;28;20124;-77
2021/12/20 05:04:01;;;;;;;18.13;2.97;;;4.70;99.90;;;;;;5009583;28;20049;-78
2021/12/20 05:06:29;;;;;;;13.68;2.67;;;4.70;99.90;;;;;;5008569;28;20053;-77
2021/12/20 05:08:55;;;;;;;23.45;3.70;;;4.70;99.90;;;;;;5010680;28;20046;-77
2021/12/20 05:11:22;;;;;;;22.85;3.10;;;4.70;99.90;;;;;;5009221;28;20480;-78
2021/12/20 05:13:48;;;;;;;17.92;2.97;;;4.60;99.90;;;;;;4990871;28;20534;-77
2021/12/20 05:16:14;;;;;;;14.82;3.05;;;4.60;99.90;;;;;;5007170;28;20050;-77
2021/12/20 05:18:39;;;;;;;17.42;2.30;;;4.50;99.90;;;;;;5011113;28;20045;-77
2021/12/20 05:21:05;;;;;;;17.90;2.92;;;4.50;99.90;;;;;;5009146;28;20052;-77
2021/12/20 05:23:31;;;;;;;16.25;3.10;;;4.50;99.90;;;;;;5008955;28;20177;-78
2021/12/20 05:25:57;;;;;;;12.30;2.45;;;4.50;99.90;;;;;;5007460;28;20086;-78
2021/12/20 05:28:23;;;;;;;16.83;2.25;;;4.40;99.90;;;;;;5000006;28;20037;-78
2021/12/20 05:30:52;;;;;;;24.88;3.33;;;4.40;99.90;;;;;;5007773;28;20103;-78
2021/12/20 05:33:18;;;;;;;17.75;2.53;;;4.40;99.90;;;;;;4993417;28;20451;-78
2021/12/20 05:35:44;;;;;;;20.90;2.45;;;4.40;99.90;;;;;;5009890;28;20045;-77
2021/12/20 05:38:10;;;;;;;15.68;2.25;;;4.30;99.90;;;;;;5008356;28;20037;-77
2021/12/20 05:40:36;;;;;;;17.65;2.90;;;4.20;99.90;;;;;;5008328;28;20045;-78
2021/12/20 05:43:03;;;;;;;24.83;3.78;;;4.20;99.90;;;;;;5008080;28;20561;-78
2021/12/20 05:45:28;;;;;;;11.48;2.33;;;4.20;99.90;;;;;;5007430;28;20068;-78
2021/12/20 05:47:54;;;;;;;10.90;2.67;;;4.10;99.90;;;;;;5007611;28;20440;-77
2021/12/20 05:50:22;;;;;;;13.77;2.08;;;4.00;99.90;;;;;;5011912;28;20455;-78
2021/12/20 05:52:47;;;;;;;13.07;2.28;;;4.00;99.90;;;;;;5002952;28;20033;-78
2021/12/20 05:55:14;;;;;;;16.88;2.80;;;3.90;99.90;;;;;;5013282;28;20038;-77
2021/12/20 05:57:40;;;;;;;18.45;2.70;;;3.80;99.90;;;;;;4996535;28;20037;-78
2021/12/20 06:00:13;;;;;;;11.95;2.22;;;3.80;99.90;;;;;;5009513;28;20046;-77
2021/12/20 06:02:39;;;;;;;14.18;2.25;;;3.80;99.90;;;;;;5012013;28;20041;-77
2021/12/20 06:05:06;;;;;;;14.18;2.35;;;3.80;99.90;;;;;;5010290;28;20095;-77
2021/12/20 06:07:32;;;;;;;17.95;2.42;;;3.70;99.90;;;;;;5014521;28;20045;-77
2021/12/20 06:09:58;;;;;;;21.88;2.47;;;3.70;99.90;;;;;;5014545;28;20063;-77
2021/12/20 06:12:23;;;;;;;14.93;2.42;;;3.70;99.90;;;;;;4998237;28;20034;-77
2021/12/20 06:14:49;;;;;;;13.65;2.75;;;3.60;99.90;;;;;;5011238;28;20040;-78
2021/12/20 06:17:15;;;;;;;14.25;2.03;;;3.60;99.90;;;;;;4999126;28;20132;-77
2021/12/20 06:19:41;;;;;;;9.65;2.05;;;3.50;99.90;;;;;;4997444;28;20411;-77
2021/12/20 06:22:10;;;;;;;10.75;1.77;;;3.50;99.90;;;;;;5013161;28;20037;-78
2021/12/20 06:24:36;;;;;;;16.33;2.08;;;3.40;99.90;;;;;;5010839;28;20049;-79
2021/12/20 06:27:02;;;;;;;12.65;2.22;;;3.40;99.90;;;;;;5009008;28;20065;-77
2021/12/20 06:29:27;;;;;;;17.35;2.50;;;3.30;99.90;;;;;;5012609;28;20075;-77
2021/12/20 06:31:53;;;;;;;18.13;2.47;;;3.30;99.90;;;;;;5013066;28;20126;-78
2021/12/20 06:34:19;;;;;;;11.82;2.08;;;3.30;99.90;;;;;;5013575;28;20065;-78
2021/12/20 06:36:44;;;;;;;11.98;1.88;;;3.30;99.90;;;;;;4994284;28;20042;-76
2021/12/20 06:39:10;;;;;;;9.23;2.10;;;3.20;99.90;;;;;;5013234;28;20071;-77
2021/12/20 06:41:37;;;;;;;11.35;2.10;;;3.10;99.90;;;;;;5011692;28;20140;-78
2021/12/20 06:44:04;;;;;;;14.00;1.92;;;3.10;99.90;;;;;;5013083;28;20041;-77
2021/12/20 06:46:32;;;;;;;16.60;2.42;;;3.00;99.90;;;;;;5011148;28;20117;-78
2021/12/20 06:48:58;;;;;;;16.75;2.60;;;3.00;99.90;;;;;;4996413;28;20625;-77
2021/12/20 06:51:23;;;;;;;20.23;3.10;;;2.90;99.90;;;;;;4997561;28;20033;-77
2021/12/20 06:53:49;;;;;;;12.93;2.47;;;2.90;99.90;;;;;;5012790;28;20096;-77
2021/12/20 06:56:15;;;;;;;10.13;1.80;;;2.90;99.90;;;;;;5013679;28;20053;-77
2021/12/20 06:58:41;;;;;;;13.20;2.10;;;2.80;99.90;;;;;;4997253;28;20043;-76
2021/12/20 07:01:07;;;;;;;15.93;2.20;;;2.80;99.90;;;;;;5007775;28;20127;-77
2021/12/20 07:03:32;;;;;;;13.63;1.92;;;2.80;99.90;;;;;;5010610;28;20403;-78
2021/12/20 07:05:58;;;;;;;16.35;2.20;;;2.80;99.90;;;;;;5013615;28;20037;-77
2021/12/20 07:08:24;;;;;;;15.48;1.83;;;2.70;99.90;;;;;;5014639;28;20029;-77
2021/12/20 07:10:49;;;;;;;13.18;2.03;;;2.70;99.90;;;;;;5012254;28;20132;-76
2021/12/20 07:13:15;;;;;;;22.35;3.00;;;2.70;99.90;;;;;;5011560;28;20034;-77
2021/12/20 07:15:41;;;;;;;15.23;2.55;;;2.60;99.90;;;;;;4995080;28;20042;-77
2021/12/20 07:18:06;;;;;;;6.15;1.38;;;2.60;99.90;;;;;;4996790;28;20063;-76
2021/12/20 07:20:33;;;;;;;8.15;1.80;;;2.60;99.90;;;;;;5010346;28;20080;-77
2021/12/20 07:23:00;;;;;;;12.57;2.33;;;2.60;99.90;;;;;;5010626;28;20041;-75
2021/12/20 07:25:25;;;;;;;8.52;1.52;;;2.50;99.90;;;;;;5012902;28;20040;-77
2021/12/20 07:27:52;;;;;;;11.25;2.60;;;2.50;99.90;;;;;;4992987;28;20033;-77
2021/12/20 07:30:19;;;;;;;11.32;2.50;;;2.50;99.90;;;;;;5013022;28;20041;-76
2021/12/20 07:32:45;;;;;;;12.88;2.15;;;2.40;99.90;;;;;;4992844;28;20033;-77
2021/12/20 07:35:12;;;;;;;34.95;2.20;;;2.40;99.90;;;;;;5013062;28;20033;-77
2021/12/20 07:37:38;;;;;;;10.23;1.80;;;2.40;99.90;;;;;;5011174;28;20483;-77
2021/12/20 07:40:08;;;;;;;11.77;2.30;;;2.30;99.90;;;;;;5011953;28;20068;-77
2021/12/20 07:42:34;;;;;;;12.07;2.15;;;2.20;99.90;;;;;;5014246;28;20041;-76
2021/12/20 07:44:59;;;;;;;13.18;1.90;;;2.10;99.90;;;;;;5006889;28;20103;-77
2021/12/20 07:47:25;;;;;;;12.45;2.03;;;2.10;99.90;;;;;;5007105;28;20499;-77
2021/12/20 07:49:51;;;;;;;15.45;2.08;;;2.10;99.90;;;;;;5007525;28;20045;-77
2021/12/20 07:52:16;;;;;;;11.23;2.40;;;2.10;99.90;;;;;;4993076;28;20044;-76
2021/12/20 07:54:42;;;;;;;14.25;2.75;;;2.10;99.90;;;;;;4994231;28;20486;-75
2021/12/20 07:57:08;;;;;;;17.38;2.47;;;2.10;99.90;;;;;;5008182;28;20034;-76
2021/12/20 07:59:33;;;;;;;15.70;2.33;;;2.10;99.90;;;;;;5009993;28;20049;-76
2021/12/20 08:01:59;;;;;;;14.48;2.58;;;2.10;99.90;;;;;;4993769;28;20072;-76
2021/12/20 08:04:25;;;;;;;17.42;2.60;;;2.10;99.90;;;;;;5010405;28;20045;-76
2021/12/20 08:06:51;;;;;;;22.08;3.17;;;2.10;99.90;;;;;;5010556;28;20033;-75
2021/12/20 08:09:17;;;;;;;14.93;2.35;;;2.10;99.90;;;;;;5007575;28;20072;-76
2021/12/20 08:11:43;;;;;;;16.88;2.67;;;2.10;99.90;;;;;;5012237;28;20045;-76
2021/12/20 08:14:09;;;;;;;21.88;2.90;;;2.10;99.90;;;;;;5010906;28;20041;-76
2021/12/20 08:16:35;;;;;;;20.08;2.60;;;2.10;99.90;;;;;;5013573;28;20041;-74
2021/12/20 08:19:01;;;;;;;14.90;3.00;;;2.10;99.90;;;;;;5012712;28;20103;-74
2021/12/20 08:21:27;;;;;;;15.27;2.35;;;2.10;99.90;;;;;;5006095;28;20124;-76
2021/12/20 08:23:52;;;;;;;20.10;2.50;;;2.10;99.90;;;;;;5014000;28;20046;-76
2021/12/20 08:26:18;;;;;;;18.65;3.33;;;2.10;99.90;;;;;;5013575;28;20053;-76
2021/12/20 08:28:44;;;;;;;16.23;2.60;;;2.10;99.90;;;;;;5011755;28;20038;-75
2021/12/20 08:31:10;;;;;;;16.95;3.05;;;2.10;99.90;;;;;;5014551;28;20045;-76
2021/12/20 08:33:37;;;;;;;16.67;3.03;;;2.10;99.90;;;;;;5014991;28;20049;-76
2021/12/20 08:36:06;;;;;;;14.88;2.58;;;2.00;99.90;;;;;;5013199;28;20118;-76
2021/12/20 08:38:33;;;;;;;20.70;2.88;;;2.10;99.90;;;;;;5004851;28;20092;-75
2021/12/20 08:40:59;;;;;;;9.55;1.92;;;2.10;99.90;;;;;;5014187;28;20052;-76
2021/12/20 08:43:26;;;;;;;14.90;2.30;;;2.10;99.90;;;;;;5011941;28;20041;-75
2021/12/20 08:45:53;;;;;;;16.05;2.45;;;2.10;99.90;;;;;;5014375;28;20049;-75
2021/12/20 08:48:19;;;;;;;13.35;2.40;;;2.10;99.90;;;;;;5014775;28;20072;-75
2021/12/20 08:50:45;;;;;;;12.10;2.17;;;2.10;99.90;;;;;;5014686;28;20065;-76
2021/12/20 08:53:11;;;;;;;9.80;1.75;;;2.10;99.90;;;;;;5009196;28;20506;-75
2021/12/20 08:55:38;;;;;;;11.57;2.10;;;2.20;99.90;;;;;;5008479;28;20124;-76
2021/12/20 08:58:05;;;;;;;16.83;2.10;;;2.20;99.90;;;;;;5012218;28;20088;-75
2021/12/20 09:00:34;;;;;;;17.08;2.30;;;2.20;99.90;;;;;;5013409;28;20120;-76
2021/12/20 09:03:00;;;;;;;10.98;2.10;;;2.20;99.90;;;;;;5013765;28;20049;-76
2021/12/20 09:05:28;;;;;;;17.13;2.95;;;2.20;99.90;;;;;;4993961;28;20095;-75
2021/12/20 09:07:56;;;;;;;21.30;3.05;;;2.30;99.90;;;;;;4996851;28;20034;-76
2021/12/20 09:10:22;;;;;;;14.10;3.42;;;2.30;99.90;;;;;;5012337;28;20048;-76
2021/12/20 09:12:48;;;;;;;22.33;3.38;;;2.30;99.90;;;;;;4997990;28;20037;-76
2021/12/20 09:15:17;;;;;;;22.92;3.70;;;2.30;99.90;;;;;;5002984;28;20049;-76
2021/12/20 09:17:49;;;;;;;22.02;3.53;;;2.40;99.90;;;;;;5008696;28;20446;-76
2021/12/20 09:20:17;;;;;;;26.00;3.25;;;2.40;99.90;;;;;;5014451;28;20080;-76
2021/12/20 09:22:52;;;;;;;23.13;4.25;;;2.50;99.90;;;;;;5013758;28;20034;-75
2021/12/20 09:25:26;;;;;;;23.40;3.65;;;2.50;99.90;;;;;;5012825;28;20037;-75
2021/12/20 09:27:54;;;;;;;20.08;3.15;;;2.50;99.90;;;;;;4996844;28;20040;-76
2021/12/20 09:30:22;;;;;;;15.23;3.40;;;2.60;99.90;;;;;;4989860;28;20125;-75
2021/12/20 09:32:47;;;;;;;21.20;4.03;;;2.60;99.90;;;;;;5006391;28;20049;-76
2021/12/20 09:35:14;;;;;;;21.58;3.50;;;2.60;99.90;;;;;;5011148;28;20045;-75
2021/12/20 09:37:40;;;;;;;20.25;3.55;;;2.60;99.90;;;;;;4994956;28;20048;-75
2021/12/20 09:40:08;;;;;;;15.00;2.90;;;2.70;99.90;;;;;;4994199;28;20041;-75
2021/12/20 09:42:34;;;;;;;17.10;2.63;;;2.70;99.90;;;;;;4996246;28;20087;-76
2021/12/20 09:45:01;;;;;;;17.98;3.50;;;2.70;99.90;;;;;;5010155;28;20090;-76
2021/12/20 09:47:33;;;;;;;14.90;2.70;;;2.80;99.90;;;;;;5012304;28;20535;-76
2021/12/20 09:50:04;;;;;;;15.25;2.65;;;2.80;99.90;;;;;;5012945;28;20487;-75
2021/12/20 09:52:30;;;;;;;25.27;3.30;;;2.80;99.90;;;;;;5025174;28;20524;-76
2021/12/20 09:54:56;;;;;;;28.35;3.55;;;2.90;99.90;;;;;;5029736;28;20038;-76
2021/12/20 09:57:23;;;;;;;25.30;3.58;;;2.90;99.90;;;;;;5003948;28;20373;-76
2021/12/20 09:59:51;;;;;;;27.40;4.18;;;3.00;99.90;;;;;;5009597;28;20029;-76
2021/12/20 10:02:20;;;;;;;31.55;4.65;;;3.10;99.90;;;;;;5003306;28;20498;-76
2021/12/20 10:04:46;;;;;;;32.92;5.88;;;3.10;99.90;;;;;;4990533;28;20048;-76
2021/12/20 10:07:18;;;;;;;23.25;4.28;;;3.20;99.90;;;;;;4994077;28;20048;-75
2021/12/20 10:09:47;;;;;;;30.65;4.75;;;3.30;99.90;;;;;;5008779;28;20041;-77
2021/12/20 10:12:21;;;;;;;34.33;5.63;;;3.40;99.90;;;;;;5011817;28;20030;-76
2021/12/20 10:15:08;;;;;;;37.63;7.50;;;3.50;99.90;;;;;;5011316;28;20476;-76
2021/12/20 10:17:55;;;;;;;21.92;4.75;;;3.60;99.90;;;;;;4998812;28;20052;-76
2021/12/20 10:20:22;;;;;;;31.52;5.32;;;3.60;99.90;;;;;;5011806;28;20057;-76
2021/12/20 10:22:48;;;;;;;23.05;4.25;;;3.70;99.90;;;;;;5012628;28;20131;-77
2021/12/20 10:25:29;;;;;;;26.45;4.43;;;3.80;99.90;;;;;;4976866;28;20042;-76
2021/12/20 10:28:05;;;;;;;21.40;4.43;;;3.80;99.90;;;;;;5008851;28;20044;-77
2021/12/20 10:30:36;;;;;;;30.40;4.95;;;3.80;99.90;;;;;;4979360;28;20124;-77
2021/12/20 10:33:04;;;;;;;25.38;5.25;;;3.90;99.90;;;;;;4999567;28;20030;-77
2021/12/20 10:35:33;;;;;;;25.92;4.68;;;3.90;99.90;;;;;;5014342;28;20037;-77
2021/12/20 10:38:18;;;;;;;35.95;4.78;;;4.00;99.90;;;;;;5008642;28;20076;-77
2021/12/20 10:41:02;;;;;;;22.52;4.78;;;4.00;99.90;;;;;;5010387;28;20516;-77
2021/12/20 10:43:35;;;;;;;30.92;7.25;;;4.10;99.90;;;;;;5012782;28;20041;-76
2021/12/20 10:46:28;;;;;;;29.98;6.68;;;4.10;99.90;;;;;;5013617;28;20068;-76
2021/12/20 10:49:14;;;;;;;33.28;7.53;;;4.20;99.90;;;;;;5005652;28;20060;-77
2021/12/20 10:51:43;;;;;;;34.28;7.80;;;4.20;99.90;;;;;;5012456;28;20036;-76
2021/12/20 10:54:13;;;;;;;32.15;6.80;;;4.30;99.90;;;;;;5012123;28;20079;-76
2021/12/20 10:56:57;;;;;;;24.98;6.93;;;4.30;99.90;;;;;;5009446;28;20556;-77
2021/12/20 10:59:26;;;;;;;29.88;6.50;;;4.40;99.90;;;;;;5004319;28;20049;-75
2021/12/20 11:04:48;;;;;;;22.60;4.35;;;4.60;99.90;;;;;;5010037;28;20488;-76
2021/12/20 11:09:54;;;;;;;17.42;3.60;;;4.80;99.90;;;;;;5015199;28;20046;-77
2021/12/20 11:12:26;;;;;;;19.45;3.75;;;4.90;99.90;;;;;;4999779;28;20377;-77
2021/12/20 11:14:56;;;;;;;19.57;3.37;;;5.00;99.90;;;;;;5015252;28;20034;-77
2021/12/20 11:17:22;;;;;;;17.38;3.42;;;5.00;99.90;;;;;;5012928;28;20366;-77
2021/12/20 11:19:50;;;;;;;23.88;4.05;;;5.10;99.90;;;;;;4991126;28;20128;-77
2021/12/20 11:22:22;;;;;;;18.77;3.90;;;5.20;99.90;;;;;;5011107;28;20702;-76
2021/12/20 11:24:55;;;;;;;13.35;3.38;;;5.30;99.90;;;;;;5009429;28;20056;-76
2021/12/20 11:27:34;;;;;;;15.48;3.35;;;5.50;99.90;;;;;;5004800;28;20037;-77
2021/12/20 11:30:08;;;;;;;16.25;4.07;;;5.60;99.90;;;;;;5011709;28;20508;-77
2021/12/20 11:32:35;;;;;;;10.10;2.20;;;5.70;99.90;;;;;;5014301;28;20045;-77
2021/12/20 11:35:01;;;;;;;11.25;2.42;;;5.70;99.90;;;;;;5010461;28;20466;-77
2021/12/20 11:37:28;;;;;;;11.60;2.90;;;5.80;99.90;;;;;;5005753;28;20129;-77
2021/12/20 11:39:57;;;;;;;15.15;3.13;;;5.90;99.90;;;;;;5014871;28;20045;-76
2021/12/20 11:42:24;;;;;;;14.52;3.25;;;6.10;99.90;;;;;;5011344;28;20446;-76
2021/12/20 11:44:54;;;;;;;15.77;2.95;;;6.30;99.90;;;;;;5013012;28;20514;-77
2021/12/20 11:47:40;;;;;;;11.68;2.97;;;6.50;99.90;;;;;;5010256;28;20088;-77
2021/12/20 11:50:11;;;;;;;8.90;2.17;;;6.60;99.90;;;;;;5016422;28;20037;-77
2021/12/20 11:52:39;;;;;;;9.35;2.33;;;6.70;99.90;;;;;;5015217;28;20065;-77
2021/12/20 11:55:27;;;;;;;9.18;2.28;;;6.80;99.90;;;;;;5014161;28;20702;-77
2021/12/20 11:57:56;;;;;;;8.93;2.08;;;6.80;99.90;;;;;;5006791;28;20048;-77
2021/12/20 12:00:28;;;;;;;7.30;1.77;;;6.90;99.90;;;;;;5010809;28;20056;-76
2021/12/20 12:03:00;;;;;;;12.80;2.40;;;7.00;99.90;;;;;;5009603;28;20063;-77
2021/12/20 12:05:36;;;;;;;9.57;2.10;;;7.10;99.90;;;;;;5014392;28;20091;-77
2021/12/20 12:08:20;;;;;;;9.05;1.95;;;7.20;99.90;;;;;;5008006;28;20277;-77
2021/12/20 12:10:46;;;;;;;5.70;1.70;;;7.40;99.90;;;;;;5025761;28;20037;-77
2021/12/20 12:13:16;;;;;;;9.68;2.72;;;7.60;99.90;;;;;;4995984;28;20407;-75
2021/12/20 12:15:52;;;;;;;10.18;1.95;;;7.80;99.90;;;;;;5009198;28;20037;-75
2021/12/20 12:18:17;;;;;;;10.38;2.08;;;8.10;99.90;;;;;;4993844;28;20075;-76
2021/12/20 12:20:50;;;;;;;9.75;2.60;;;8.50;99.90;;;;;;5010348;28;20064;-77
2021/12/20 12:23:23;;;;;;;9.20;1.80;;;8.80;99.90;;;;;;4990631;28;20038;-76
2021/12/20 12:25:54;;;;;;;10.48;2.10;;;9.10;99.90;;;;;;5007887;28;20037;-76
2021/12/20 12:28:26;;;;;;;8.50;1.63;;;9.30;99.90;;;;;;5009694;28;20046;-77
2021/12/20 12:30:56;;;;;;;6.78;1.40;;;9.40;99.40;;;;;;5010540;28;20043;-76
2021/12/20 12:33:24;;;;;;;4.60;1.50;;;9.50;99.90;;;;;;5004806;28;20061;-76
2021/12/20 12:35:52;;;;;;;4.63;1.95;;;9.60;98.20;;;;;;4980815;28;20025;-76
2021/12/20 12:38:37;;;;;;;5.78;1.48;;;9.70;98.00;;;;;;5010559;28;20064;-76
2021/12/20 12:41:07;;;;;;;6.00;1.10;;;9.80;95.20;;;;;;4994047;28;20033;-78
2021/12/20 12:43:52;;;;;;;5.25;1.40;;;9.90;94.00;;;;;;4991803;28;20106;-76
2021/12/20 12:46:36;;;;;;;4.25;1.33;;;10.00;93.10;;;;;;5019866;28;20049;-76
2021/12/20 12:49:29;;;;;;;5.43;1.30;;;10.10;91.70;;;;;;5010969;28;20038;-77
2021/12/20 12:52:28;;;;;;;6.55;1.33;;;10.10;92.80;;;;;;5009364;28;20044;-76
2021/12/20 12:54:56;;;;;;;5.55;1.45;;;10.10;91.00;;;;;;5005873;28;20038;-77
2021/12/20 12:57:22;;;;;;;3.25;1.10;;;10.00;85.80;;;;;;4999362;28;20052;-76
2021/12/20 12:59:48;;;;;;;4.57;1.30;;;10.00;89.10;;;;;;4982010;28;20042;-76
2021/12/20 13:02:22;;;;;;;3.83;1.10;;;10.00;86.00;;;;;;4980108;28;20425;-76
2021/12/20 13:04:48;;;;;;;2.92;0.93;;;10.10;89.40;;;;;;4980428;28;20117;-79
2021/12/20 13:07:18;;;;;;;4.00;1.08;;;10.20;88.20;;;;;;4996465;28;20208;-76
2021/12/20 13:09:46;;;;;;;2.85;1.02;;;10.40;87.70;;;;;;4963717;28;20030;-76
2021/12/20 13:12:25;;;;;;;2.75;1.08;;;10.50;83.50;;;;;;4981047;28;20042;-76
2021/12/20 13:15:04;;;;;;;4.88;1.10;;;10.70;82.40;;;;;;4998894;28;20042;-75